Time;durP1;ratioP1;P1;durP2;ratioP2;P2;SDS_P1;SDS_P2;PMS_P1;PMS_P2;Temp;Humidity;BMP_temperature;BMP_pressure;BME280_temperature;BME280_humidity;BME280_pressure;Samples;Min_cycle;Max_cycle;Signal;HPM_P1;HPM_P2
2022/06/28 00:02:25;;;;;;;0.30;0.30;;;17.40;99.90;;;;;;5059332;28;20202;-77
2022/06/28 00:04:51;;;;;;;0.40;0.40;;;17.30;99.90;;;;;;5071611;28;20700;-76
2022/06/28 00:07:17;;;;;;;0.30;0.30;;;17.30;99.90;;;;;;5072006;28;20179;-77
2022/06/28 00:09:42;;;;;;;0.40;0.40;;;17.40;99.90;;;;;;5071552;28;20170;-77
2022/06/28 00:12:08;;;;;;;0.30;0.30;;;17.40;99.90;;;;;;5062905;28;20603;-77
2022/06/28 00:17:18;;;;;;;0.40;0.40;;;17.40;99.90;;;;;;5052259;28;20685;-77
2022/06/28 00:19:43;;;;;;;0.30;0.30;;;17.40;99.90;;;;;;5050846;28;20298;-77
2022/06/28 00:22:09;;;;;;;0.30;0.30;;;17.40;99.90;;;;;;5050310;28;20672;-76
2022/06/28 00:24:35;;;;;;;0.37;0.37;;;17.30;99.90;;;;;;5051939;28;20254;-77
2022/06/28 00:27:00;;;;;;;0.40;0.40;;;17.30;99.90;;;;;;5052166;28;20687;-77
2022/06/28 00:29:26;;;;;;;0.37;0.37;;;17.30;99.90;;;;;;5051163;28;20177;-77
2022/06/28 00:31:51;;;;;;;0.40;0.40;;;17.30;99.90;;;;;;5050587;28;20199;-78
2022/06/28 00:34:17;;;;;;;0.33;0.33;;;17.30;99.90;;;;;;5051955;28;20175;-76
2022/06/28 00:36:42;;;;;;;0.40;0.40;;;17.30;99.90;;;;;;5052301;28;20651;-77
2022/06/28 00:39:08;;;;;;;0.40;0.40;;;17.30;99.90;;;;;;5050520;28;20218;-78
2022/06/28 00:41:36;;;;;;;0.40;0.40;;;17.30;99.90;;;;;;5049340;28;20305;-76
2022/06/28 00:44:03;;;;;;;0.30;0.30;;;17.20;99.90;;;;;;5051287;28;20210;-77
2022/06/28 00:46:29;;;;;;;0.40;0.40;;;17.20;99.90;;;;;;5060873;28;20175;-77
2022/06/28 00:48:55;;;;;;;0.40;0.40;;;17.20;99.90;;;;;;5058644;28;20508;-78
2022/06/28 00:51:21;;;;;;;0.40;0.40;;;17.20;99.90;;;;;;5054752;28;20175;-80
2022/06/28 00:53:47;;;;;;;0.30;0.30;;;17.10;99.90;;;;;;5046404;28;20209;-79
2022/06/28 00:56:12;;;;;;;0.30;0.30;;;17.10;99.90;;;;;;5055146;28;20206;-78
2022/06/28 00:58:38;;;;;;;0.30;0.30;;;17.00;99.90;;;;;;5054821;28;20216;-78
2022/06/28 01:01:03;;;;;;;0.37;0.37;;;16.90;99.90;;;;;;5054530;28;20168;-78
2022/06/28 01:03:29;;;;;;;0.30;0.30;;;16.90;99.90;;;;;;5071390;28;20821;-77
2022/06/28 01:05:55;;;;;;;0.30;0.30;;;16.80;99.90;;;;;;5075422;28;20188;-78
2022/06/28 01:08:20;;;;;;;0.30;0.30;;;16.70;99.90;;;;;;5075245;28;20171;-78
2022/06/28 01:10:46;;;;;;;0.40;0.40;;;16.70;99.90;;;;;;5074964;28;20632;-77
2022/06/28 01:13:12;;;;;;;0.40;0.40;;;16.70;99.90;;;;;;5057769;28;20214;-77
2022/06/28 01:15:40;;;;;;;0.30;0.30;;;16.60;99.90;;;;;;5055248;28;20558;-80
2022/06/28 01:18:06;;;;;;;0.40;0.40;;;16.60;99.90;;;;;;5055122;28;20737;-78
2022/06/28 01:20:33;;;;;;;0.30;0.30;;;16.50;99.90;;;;;;5054462;28;20167;-76
2022/06/28 01:22:59;;;;;;;0.30;0.30;;;16.60;99.90;;;;;;5053618;28;20238;-77
2022/06/28 01:25:24;;;;;;;0.30;0.30;;;16.50;99.90;;;;;;5054863;28;20203;-77
2022/06/28 01:27:55;;;;;;;0.30;0.30;;;16.50;99.90;;;;;;5055570;28;20175;-77
2022/06/28 01:30:21;;;;;;;0.30;0.30;;;16.50;99.90;;;;;;5054902;28;20187;-77
2022/06/28 01:32:47;;;;;;;0.40;0.40;;;16.50;99.90;;;;;;5053392;28;20221;-77
2022/06/28 01:35:13;;;;;;;0.40;0.40;;;16.50;99.90;;;;;;5054433;28;20254;-76
2022/06/28 01:37:38;;;;;;;0.47;0.47;;;16.50;99.90;;;;;;5056743;28;20179;-78
2022/06/28 01:40:06;;;;;;;0.40;0.40;;;16.50;99.90;;;;;;5058133;28;20191;-77
2022/06/28 01:42:32;;;;;;;0.30;0.30;;;16.50;99.90;;;;;;5065944;28;20289;-77
2022/06/28 01:44:59;;;;;;;0.30;0.30;;;16.50;99.90;;;;;;5078183;28;20170;-77
2022/06/28 01:47:26;;;;;;;0.33;0.33;;;16.50;99.90;;;;;;5077686;28;20187;-78
2022/06/28 01:49:53;;;;;;;0.40;0.40;;;16.50;99.90;;;;;;5076511;28;20274;-77
2022/06/28 01:52:19;;;;;;;0.40;0.40;;;16.60;99.90;;;;;;5073387;28;20208;-77
2022/06/28 01:54:44;;;;;;;0.30;0.30;;;16.60;99.90;;;;;;5074942;28;20281;-78
2022/06/28 01:57:10;;;;;;;0.30;0.30;;;16.60;99.90;;;;;;5075960;28;20183;-78
2022/06/28 01:59:39;;;;;;;0.30;0.30;;;16.60;99.90;;;;;;5074069;28;20246;-78
2022/06/28 02:02:05;;;;;;;0.40;0.40;;;16.60;99.90;;;;;;5064962;28;20202;-77
2022/06/28 02:04:30;;;;;;;0.40;0.40;;;16.50;99.90;;;;;;5053447;28;20265;-78
2022/06/28 02:06:58;;;;;;;0.40;0.40;;;16.50;99.90;;;;;;5053446;28;20258;-78
2022/06/28 02:09:24;;;;;;;0.40;0.40;;;16.50;99.90;;;;;;5053232;28;20246;-77
2022/06/28 02:11:50;;;;;;;0.40;0.40;;;16.40;99.90;;;;;;5052577;28;20199;-78
2022/06/28 02:14:16;;;;;;;0.30;0.30;;;16.40;99.90;;;;;;5053763;28;20203;-78
2022/06/28 02:16:42;;;;;;;0.40;0.40;;;16.30;99.90;;;;;;5053451;28;20218;-77
2022/06/28 02:19:08;;;;;;;0.40;0.40;;;16.30;99.90;;;;;;5053534;28;20203;-77
2022/06/28 02:21:37;;;;;;;0.40;0.40;;;16.30;99.90;;;;;;5052101;28;20209;-77
2022/06/28 02:24:04;;;;;;;0.30;0.30;;;16.30;99.90;;;;;;5053685;28;20209;-78
2022/06/28 02:26:32;;;;;;;0.30;0.30;;;16.20;99.90;;;;;;5054209;28;20175;-77
2022/06/28 02:28:59;;;;;;;0.30;0.30;;;16.20;99.90;;;;;;5053301;28;20268;-79
2022/06/28 02:31:24;;;;;;;0.40;0.40;;;16.20;99.90;;;;;;5051568;28;20179;-78
2022/06/28 02:33:50;;;;;;;0.40;0.40;;;16.10;99.90;;;;;;5053335;28;20549;-78
2022/06/28 02:41:44;;;;;;;0.30;0.30;;;15.90;99.90;;;;;;5052405;28;20213;-77
2022/06/28 02:44:10;;;;;;;0.30;0.30;;;15.80;99.90;;;;;;5053164;28;20178;-77
2022/06/28 02:46:36;;;;;;;0.30;0.30;;;15.80;99.90;;;;;;5053335;28;20171;-78
2022/06/28 02:49:01;;;;;;;0.40;0.40;;;15.70;99.90;;;;;;5052495;28;20238;-78
2022/06/28 02:51:27;;;;;;;0.40;0.40;;;15.70;99.90;;;;;;5052478;28;20203;-79
2022/06/28 02:53:53;;;;;;;0.40;0.40;;;15.70;99.90;;;;;;5054420;28;20199;-79
2022/06/28 02:56:19;;;;;;;0.40;0.40;;;15.70;99.90;;;;;;5060240;28;20548;-77
2022/06/28 02:58:45;;;;;;;0.37;0.37;;;15.70;99.90;;;;;;5060487;28;20242;-78
2022/06/28 03:01:10;;;;;;;0.30;0.30;;;15.60;99.90;;;;;;5060792;28;20182;-78
2022/06/28 03:03:36;;;;;;;0.40;0.40;;;15.60;99.90;;;;;;5060541;28;20186;-78
2022/06/28 03:06:03;;;;;;;0.40;0.40;;;15.60;99.90;;;;;;5062814;28;20175;-78
2022/06/28 03:08:28;;;;;;;0.30;0.30;;;15.70;99.90;;;;;;5064384;28;20324;-78
2022/06/28 03:10:54;;;;;;;0.30;0.30;;;15.60;99.90;;;;;;5058760;28;20206;-80
2022/06/28 03:13:19;;;;;;;0.30;0.30;;;15.50;99.90;;;;;;5053324;28;20202;-80
2022/06/28 03:15:45;;;;;;;0.30;0.30;;;15.40;99.90;;;;;;5054836;28;20237;-79
2022/06/28 03:18:10;;;;;;;0.30;0.30;;;15.40;99.90;;;;;;5054844;28;20214;-79
2022/06/28 03:20:36;;;;;;;0.30;0.30;;;15.40;99.90;;;;;;5053900;28;20185;-79
2022/06/28 03:23:01;;;;;;;0.40;0.40;;;15.30;99.90;;;;;;5052647;28;20234;-78
2022/06/28 03:25:27;;;;;;;0.30;0.30;;;15.30;99.90;;;;;;5054220;28;20213;-79
2022/06/28 03:27:52;;;;;;;0.40;0.40;;;15.30;99.90;;;;;;5054307;28;20175;-79
2022/06/28 03:30:18;;;;;;;0.30;0.30;;;15.40;99.90;;;;;;5053099;28;20175;-79
2022/06/28 03:32:43;;;;;;;0.30;0.30;;;15.50;99.90;;;;;;5052780;28;20211;-79
2022/06/28 03:35:09;;;;;;;0.40;0.40;;;15.50;99.90;;;;;;5053631;28;20171;-79
2022/06/28 03:37:36;;;;;;;0.40;0.40;;;15.50;99.90;;;;;;5053049;28;20253;-79
2022/06/28 03:40:03;;;;;;;0.40;0.40;;;15.60;99.90;;;;;;5052722;28;20195;-79
2022/06/28 03:42:28;;;;;;;0.40;0.40;;;15.60;99.90;;;;;;5051387;28;20612;-79
2022/06/28 03:44:54;;;;;;;0.37;0.37;;;15.60;99.90;;;;;;5052929;28;20175;-79
2022/06/28 03:47:20;;;;;;;0.30;0.30;;;15.70;99.90;;;;;;5053749;28;20582;-81
2022/06/28 03:49:47;;;;;;;0.30;0.30;;;15.70;99.90;;;;;;5054444;28;20613;-78
2022/06/28 03:52:13;;;;;;;0.40;0.40;;;15.70;99.90;;;;;;5054862;28;20202;-78
2022/06/28 03:54:39;;;;;;;0.30;0.30;;;15.70;99.90;;;;;;5054980;28;20207;-79
2022/06/28 03:57:04;;;;;;;0.40;0.40;;;15.80;99.90;;;;;;5053159;28;20543;-79
2022/06/28 03:59:30;;;;;;;0.40;0.40;;;15.80;99.90;;;;;;5053234;28;20237;-78
2022/06/28 04:01:55;;;;;;;0.40;0.40;;;15.80;99.90;;;;;;5057342;28;20198;-78
2022/06/28 04:04:21;;;;;;;0.30;0.30;;;15.90;99.90;;;;;;5073790;28;20204;-79
2022/06/28 04:06:47;;;;;;;0.40;0.40;;;15.90;99.90;;;;;;5072517;28;20522;-78
2022/06/28 04:09:12;;;;;;;0.30;0.30;;;15.90;99.90;;;;;;5071789;28;20189;-79
2022/06/28 04:11:38;;;;;;;0.40;0.40;;;16.00;99.90;;;;;;5065203;28;20199;-80
2022/06/28 04:14:03;;;;;;;0.40;0.40;;;16.00;99.90;;;;;;5052733;28;20178;-78
2022/06/28 04:16:29;;;;;;;0.40;0.40;;;16.10;99.90;;;;;;5053012;28;20580;-79
2022/06/28 04:18:54;;;;;;;0.43;0.43;;;16.10;99.90;;;;;;5051432;28;20596;-80
2022/06/28 04:21:20;;;;;;;0.40;0.40;;;16.10;99.90;;;;;;5051926;28;20706;-79
2022/06/28 04:23:46;;;;;;;0.30;0.30;;;16.10;99.90;;;;;;5052990;28;20178;-78
2022/06/28 04:26:13;;;;;;;0.40;0.40;;;16.10;99.90;;;;;;5053512;28;20171;-80
2022/06/28 04:28:39;;;;;;;0.37;0.37;;;16.20;99.90;;;;;;5053155;28;20582;-78
2022/06/28 04:31:05;;;;;;;0.40;0.40;;;16.20;99.90;;;;;;5052722;28;20182;-77
2022/06/28 04:33:30;;;;;;;0.30;0.30;;;16.30;99.90;;;;;;5050711;28;20195;-78
2022/06/28 04:35:56;;;;;;;0.30;0.30;;;16.40;99.90;;;;;;5052272;28;20175;-78
2022/06/28 04:38:22;;;;;;;0.40;0.40;;;16.50;99.90;;;;;;5052262;28;20207;-79
2022/06/28 04:40:48;;;;;;;0.30;0.30;;;16.50;99.90;;;;;;5052238;28;20210;-78
2022/06/28 04:43:14;;;;;;;0.40;0.40;;;16.50;99.90;;;;;;5068303;28;20195;-77
2022/06/28 04:45:39;;;;;;;0.40;0.40;;;16.60;99.90;;;;;;5075890;28;20262;-78
2022/06/28 04:48:05;;;;;;;0.40;0.40;;;16.60;99.90;;;;;;5066369;28;20226;-78
2022/06/28 04:50:32;;;;;;;0.40;0.40;;;16.70;99.90;;;;;;5051166;28;20641;-78
2022/06/28 04:52:58;;;;;;;0.40;0.40;;;16.80;99.90;;;;;;5050708;28;20203;-79
2022/06/28 04:55:24;;;;;;;0.40;0.40;;;16.80;99.90;;;;;;5052932;28;20171;-79
2022/06/28 04:57:50;;;;;;;0.30;0.30;;;16.90;99.90;;;;;;5053676;28;20183;-79
2022/06/28 05:00:16;;;;;;;0.40;0.40;;;17.00;99.90;;;;;;5049558;28;20187;-76
2022/06/28 05:02:43;;;;;;;0.30;0.30;;;17.00;99.90;;;;;;5048287;28;20223;-76
2022/06/28 05:05:10;;;;;;;0.40;0.40;;;17.00;99.90;;;;;;5049457;28;20267;-76
2022/06/28 05:07:36;;;;;;;0.37;0.37;;;17.00;99.90;;;;;;5050842;28;20187;-80
2022/06/28 05:10:03;;;;;;;0.30;0.30;;;17.10;99.90;;;;;;5053133;28;20171;-77
2022/06/28 05:12:29;;;;;;;0.33;0.33;;;17.30;99.90;;;;;;5049467;28;20210;-76
2022/06/28 05:14:54;;;;;;;0.50;0.50;;;17.40;99.90;;;;;;5050912;28;20175;-76
2022/06/28 05:17:20;;;;;;;0.30;0.30;;;17.50;99.90;;;;;;5051344;28;20203;-76
2022/06/28 05:19:46;;;;;;;0.40;0.40;;;17.40;99.90;;;;;;5050585;28;20260;-77
2022/06/28 05:22:12;;;;;;;0.40;0.40;;;17.50;99.90;;;;;;5046400;28;20195;-76
2022/06/28 05:24:38;;;;;;;0.30;0.30;;;17.60;99.90;;;;;;5050072;28;20187;-76
2022/06/28 05:27:04;;;;;;;0.33;0.33;;;17.70;99.90;;;;;;5049552;28;20591;-76
2022/06/28 05:29:30;;;;;;;0.30;0.30;;;17.70;99.90;;;;;;5050637;28;20210;-76
2022/06/28 05:31:56;;;;;;;0.40;0.40;;;17.80;99.90;;;;;;5052748;28;20187;-76
2022/06/28 05:34:22;;;;;;;0.30;0.30;;;17.80;99.90;;;;;;5054287;28;20202;-78
2022/06/28 05:36:48;;;;;;;0.40;0.40;;;18.00;99.90;;;;;;5054491;28;20183;-76
2022/06/28 05:39:14;;;;;;;0.30;0.30;;;18.10;99.90;;;;;;5085619;22;20256;-72
2022/06/28 05:41:43;;;;;;;0.40;0.40;;;18.20;99.90;;;;;;5094093;28;20398;-71
2022/06/28 05:44:10;;;;;;;0.30;0.30;;;18.30;99.90;;;;;;5114361;28;20178;-72
2022/06/28 05:46:36;;;;;;;0.40;0.40;;;18.30;99.90;;;;;;5114333;28;20196;-72
2022/06/28 05:49:02;;;;;;;0.40;0.40;;;18.40;99.90;;;;;;5108534;28;20201;-72
2022/06/28 05:51:29;;;;;;;0.30;0.30;;;18.40;99.90;;;;;;5076476;28;20185;-71
2022/06/28 05:53:55;;;;;;;0.40;0.40;;;18.50;99.90;;;;;;5093604;28;20174;-71
2022/06/28 05:56:21;;;;;;;0.30;0.30;;;18.70;99.90;;;;;;5093601;28;20220;-69
2022/06/28 05:58:46;;;;;;;0.40;0.40;;;18.70;99.90;;;;;;5093627;28;20252;-70
2022/06/28 06:01:12;;;;;;;0.40;0.40;;;18.70;99.90;;;;;;5093241;28;20538;-72
2022/06/28 06:03:37;;;;;;;0.30;0.30;;;18.90;99.90;;;;;;5092301;28;20181;-72
2022/06/28 06:06:03;;;;;;;0.30;0.30;;;19.00;99.90;;;;;;5093818;28;20630;-72
2022/06/28 06:08:29;;;;;;;0.30;0.30;;;19.00;99.90;;;;;;5084999;28;20178;-72
2022/06/28 06:10:54;;;;;;;0.30;0.30;;;18.90;99.90;;;;;;5072728;28;20697;-69
2022/06/28 06:13:20;;;;;;;0.30;0.30;;;18.80;99.90;;;;;;5089014;28;20222;-70
2022/06/28 06:15:45;;;;;;;0.30;0.30;;;18.70;99.90;;;;;;5092931;28;20189;-71
2022/06/28 06:18:11;;;;;;;0.30;0.30;;;18.60;99.90;;;;;;5091302;28;20225;-70
2022/06/28 06:20:36;;;;;;;0.30;0.30;;;18.70;99.90;;;;;;5092652;28;20184;-72
2022/06/28 06:23:02;;;;;;;0.30;0.30;;;18.80;99.90;;;;;;5106409;28;20209;-71
2022/06/28 06:25:29;;;;;;;0.30;0.30;;;18.90;99.90;;;;;;5100037;28;20194;-72
2022/06/28 06:27:54;;;;;;;0.40;0.40;;;19.10;99.90;;;;;;5091990;28;20721;-71
2022/06/28 06:30:20;;;;;;;0.40;0.40;;;19.30;99.90;;;;;;5092331;28;20176;-71
2022/06/28 06:32:45;;;;;;;0.40;0.40;;;19.40;99.90;;;;;;5092914;28;20202;-71
2022/06/28 06:35:11;;;;;;;0.40;0.40;;;19.50;83.10;;;;;;5092586;28;20181;-71
2022/06/28 06:37:37;;;;;;;0.30;0.30;;;19.50;93.40;;;;;;5092615;28;20178;-71
2022/06/28 06:40:03;;;;;;;0.30;0.30;;;19.50;52.30;;;;;;5092070;28;20304;-71
2022/06/28 06:42:29;;;;;;;0.30;0.30;;;19.60;2.10;;;;;;5091434;28;20200;-71
2022/06/28 06:44:55;;;;;;;0.30;0.30;;;19.50;1.00;;;;;;5092644;28;20254;-71
2022/06/28 06:47:21;;;;;;;0.30;0.30;;;19.40;1.00;;;;;;5092707;28;20239;-71
2022/06/28 06:49:46;;;;;;;0.30;0.30;;;19.50;1.00;;;;;;5086415;28;20619;-72
2022/06/28 06:52:12;;;;;;;0.30;0.30;;;19.40;1.00;;;;;;5072282;28;20191;-71
2022/06/28 06:54:37;;;;;;;0.30;0.30;;;19.50;1.00;;;;;;5073009;28;20174;-72
2022/06/28 06:57:03;;;;;;;0.40;0.40;;;19.30;1.00;;;;;;5072815;28;20211;-70
2022/06/28 06:59:29;;;;;;;0.40;0.40;;;19.10;1.00;;;;;;5072310;28;20278;-71
2022/06/28 07:01:54;;;;;;;0.30;0.30;;;19.00;24.20;;;;;;5072374;28;20305;-71
2022/06/28 07:04:20;;;;;;;0.30;0.30;;;19.10;2.70;;;;;;5072299;28;20182;-70
2022/06/28 07:06:45;;;;;;;0.30;0.30;;;19.10;9.80;;;;;;5072283;28;20652;-70
2022/06/28 07:09:11;;;;;;;0.40;0.40;;;19.00;29.70;;;;;;5071607;28;20182;-70
2022/06/28 07:11:36;;;;;;;0.40;0.40;;;19.00;1.00;;;;;;5072225;28;20209;-70
2022/06/28 07:14:03;;;;;;;0.30;0.30;;;18.80;17.50;;;;;;5072241;28;20179;-70
2022/06/28 07:16:28;;;;;;;0.40;0.40;;;18.70;55.10;;;;;;5072139;28;20175;-69
2022/06/28 07:18:54;;;;;;;0.30;0.30;;;18.60;99.90;;;;;;5071478;28;20202;-71
2022/06/28 07:21:20;;;;;;;0.30;0.30;;;18.60;99.90;;;;;;5071911;28;20295;-70
2022/06/28 07:23:45;;;;;;;0.30;0.30;;;18.60;99.90;;;;;;5071891;28;20186;-71
2022/06/28 07:26:11;;;;;;;0.30;0.30;;;18.50;99.90;;;;;;5072169;28;20177;-70
2022/06/28 07:28:37;;;;;;;0.30;0.30;;;18.50;99.90;;;;;;5072044;28;20202;-70
2022/06/28 07:31:03;;;;;;;0.30;0.30;;;18.40;99.90;;;;;;5071512;28;20521;-71
2022/06/28 07:33:28;;;;;;;0.33;0.33;;;18.40;99.90;;;;;;5071854;28;20278;-70
2022/06/28 07:35:54;;;;;;;0.33;0.33;;;18.40;99.90;;;;;;5071956;28;20228;-71
2022/06/28 07:38:19;;;;;;;0.30;0.30;;;18.40;99.90;;;;;;5072420;28;20202;-71
2022/06/28 07:40:45;;;;;;;0.30;0.30;;;18.40;99.90;;;;;;5071236;28;20193;-70
2022/06/28 07:43:10;;;;;;;0.30;0.30;;;18.50;99.90;;;;;;5071541;28;20232;-71
2022/06/28 07:45:36;;;;;;;0.40;0.40;;;18.60;99.90;;;;;;5071862;28;20175;-72
2022/06/28 07:48:06;;;;;;;0.37;0.37;;;19.10;99.90;;;;;;5071746;28;20194;-70
2022/06/28 07:53:17;;;;;;;0.37;0.37;;;20.60;45.20;;;;;;5071453;28;20201;-72
2022/06/28 07:55:42;;;;;;;0.33;0.33;;;21.50;1.00;;;;;;5071649;28;20174;-71
2022/06/28 07:58:08;;;;;;;0.40;0.40;;;21.90;99.90;;;;;;5071095;28;20201;-71
2022/06/28 08:00:33;;;;;;;0.33;0.33;;;22.20;1.00;;;;;;5070869;28;20182;-71
2022/06/28 08:03:02;;;;;;;0.30;0.30;;;22.60;1.00;;;;;;5071294;28;20631;-71
2022/06/28 08:05:28;;;;;;;0.30;0.30;;;23.20;99.90;;;;;;5071286;28;20220;-72
2022/06/28 08:07:53;;;;;;;0.40;0.40;;;23.40;1.00;;;;;;5071317;28;20170;-72
2022/06/28 08:10:19;;;;;;;0.40;0.40;;;23.40;99.90;;;;;;5070866;28;20181;-73
2022/06/28 08:12:45;;;;;;;0.40;0.40;;;23.80;1.00;;;;;;5071186;28;20198;-74
2022/06/28 08:15:11;;;;;;;0.30;0.30;;;24.40;99.90;;;;;;5071399;28;20194;-72
2022/06/28 08:17:37;;;;;;;0.40;0.40;;;24.40;1.00;;;;;;5071322;28;20170;-73
2022/06/28 08:20:03;;;;;;;0.40;0.40;;;24.30;1.00;;;;;;5070502;28;20213;-73
2022/06/28 08:22:28;;;;;;;0.30;0.30;;;24.00;99.90;;;;;;5071204;28;20186;-73
2022/06/28 08:24:54;;;;;;;0.30;0.30;;;24.30;1.00;;;;;;5071258;28;20523;-73
2022/06/28 08:27:20;;;;;;;0.40;0.40;;;24.80;57.50;;;;;;5071130;28;20236;-72
2022/06/28 08:29:46;;;;;;;0.37;0.37;;;24.40;70.60;;;;;;5070743;28;20174;-72
2022/06/28 08:32:12;;;;;;;0.30;0.30;;;24.00;99.90;;;;;;5071113;28;20190;-72
2022/06/28 08:34:38;;;;;;;0.40;0.40;;;24.10;99.90;;;;;;5071036;28;20174;-73
2022/06/28 08:37:05;;;;;;;0.30;0.30;;;24.20;99.90;;;;;;5071050;28;20686;-73
2022/06/28 08:39:31;;;;;;;0.30;0.30;;;24.60;99.90;;;;;;5070433;28;20218;-74
2022/06/28 08:42:03;;;;;;;0.40;0.40;;;25.20;22.00;;;;;;5071049;28;20193;-73
2022/06/28 08:44:31;;;;;;;0.40;0.40;;;25.10;1.00;;;;;;5070835;28;20210;-74
2022/06/28 08:46:58;;;;;;;0.33;0.33;;;25.40;1.00;;;;;;5070758;28;20602;-74
2022/06/28 08:49:48;;;;;;;0.30;0.30;;;25.60;1.00;;;;;;5070599;28;20193;-73
2022/06/28 08:52:14;;;;;;;0.40;0.40;;;25.70;1.00;;;;;;5070900;28;20194;-74
2022/06/28 08:54:41;;;;;;;0.30;0.30;;;25.40;1.00;;;;;;5070834;28;20663;-73
2022/06/28 08:57:07;;;;;;;0.40;0.40;;;25.20;1.00;;;;;;5070827;28;20190;-74
2022/06/28 08:59:34;;;;;;;0.30;0.30;;;24.60;1.00;;;;;;5070043;28;20574;-73
2022/06/28 09:02:00;;;;;;;0.30;0.30;;;24.10;83.90;;;;;;5070656;28;20205;-72
2022/06/28 09:04:31;;;;;;;0.23;0.23;;;23.70;99.90;;;;;;5071076;28;20587;-73
2022/06/28 09:06:56;;;;;;;0.33;0.33;;;23.40;1.00;;;;;;5074524;28;20556;-74
2022/06/28 09:09:22;;;;;;;0.30;0.30;;;23.40;1.00;;;;;;5073974;28;20189;-73
2022/06/28 09:11:48;;;;;;;0.30;0.30;;;23.30;99.90;;;;;;5074435;28;20208;-74
2022/06/28 09:14:29;;;;;;;0.37;0.37;;;23.30;1.00;;;;;;5074431;28;20198;-74
2022/06/28 09:16:56;;;;;;;0.30;0.30;;;23.20;99.90;;;;;;5074440;28;20224;-73
2022/06/28 09:19:37;;;;;;;0.30;0.30;;;23.30;99.90;;;;;;5073659;28;20679;-73
2022/06/28 09:22:05;;;;;;;0.20;0.20;;;23.40;99.90;;;;;;5074243;28;20210;-73
2022/06/28 09:24:31;;;;;;;0.33;0.33;;;23.30;99.90;;;;;;5074142;28;20178;-73
2022/06/28 09:27:04;;;;;;;0.30;0.30;;;23.00;99.90;;;;;;5074406;28;20594;-73
2022/06/28 09:29:48;;;;;;;0.40;0.40;;;23.20;1.00;;;;;;5073656;28;20689;-74
2022/06/28 09:32:14;;;;;;;0.30;0.30;;;23.70;1.00;;;;;;5074096;28;20194;-74
2022/06/28 09:34:41;;;;;;;0.30;0.30;;;24.10;99.90;;;;;;5077247;28;20184;-73
2022/06/28 09:37:07;;;;;;;0.30;0.30;;;24.40;99.90;;;;;;5094192;28;20200;-73
2022/06/28 09:39:32;;;;;;;0.33;0.33;;;24.70;99.90;;;;;;5092371;28;20562;-73
2022/06/28 09:41:59;;;;;;;0.30;0.30;;;24.90;64.10;;;;;;5093688;28;20189;-73
2022/06/28 09:44:28;;;;;;;0.30;0.30;;;25.10;1.00;;;;;;5094331;28;20177;-74
2022/06/28 09:46:57;;;;;;;0.20;0.20;;;25.20;1.00;;;;;;5094232;28;20185;-73
2022/06/28 09:49:30;;;;;;;0.30;0.30;;;24.90;1.00;;;;;;5093550;28;20258;-73
2022/06/28 09:51:59;;;;;;;0.30;0.30;;;24.60;1.00;;;;;;5094007;28;20685;-73
2022/06/28 09:54:29;;;;;;;0.30;0.30;;;24.10;1.00;;;;;;5094107;28;20185;-74
2022/06/28 09:56:56;;;;;;;0.40;0.40;;;23.60;77.20;;;;;;5094260;28;20246;-74
2022/06/28 09:59:26;;;;;;;0.30;0.30;;;23.30;7.20;;;;;;5093690;28;20202;-73
2022/06/28 10:01:56;;;;;;;0.37;0.37;;;23.10;99.90;;;;;;5093923;28;20731;-73
2022/06/28 10:04:23;;;;;;;0.40;0.40;;;22.90;99.90;;;;;;5094226;28;20181;-73
2022/06/28 10:06:49;;;;;;;0.30;0.30;;;22.80;99.90;;;;;;5093870;28;20170;-73
2022/06/28 10:09:18;;;;;;;0.30;0.30;;;22.70;99.90;;;;;;5093356;28;20185;-73
2022/06/28 10:17:23;;;;;;;0.40;0.40;;;24.00;3.40;;;;;;5092641;28;20216;-74
2022/06/28 10:19:50;;;;;;;0.30;0.30;;;24.40;27.10;;;;;;5093224;28;20579;-73
2022/06/28 10:22:16;;;;;;;0.40;0.40;;;24.90;1.00;;;;;;5093474;28;20197;-73
2022/06/28 10:24:54;;;;;;;0.40;0.40;;;25.60;1.00;;;;;;5093498;28;20180;-73
2022/06/28 10:27:21;;;;;;;0.40;0.40;;;25.90;1.00;;;;;;5093591;28;20197;-73
2022/06/28 10:29:58;;;;;;;0.50;0.50;;;26.50;1.00;;;;;;5092823;28;20691;-74
2022/06/28 10:32:49;;;;;;;0.40;0.40;;;26.80;1.00;;;;;;5093383;28;20222;-73
2022/06/28 10:35:41;;;;;;;0.40;0.40;;;26.80;1.00;;;;;;5093082;28;20546;-73
2022/06/28 10:38:09;;;;;;;0.30;0.30;;;26.50;1.00;;;;;;5093095;28;20292;-73
2022/06/28 10:40:41;;;;;;;0.30;0.30;;;26.40;1.00;;;;;;5092555;28;20204;-74
2022/06/28 10:43:07;;;;;;;0.43;0.43;;;26.70;1.00;;;;;;5093058;28;20197;-73
2022/06/28 10:46:02;;;;;;;0.37;0.37;;;27.00;1.00;;;;;;5093206;28;20185;-74
2022/06/28 10:48:51;;;;;;;0.30;0.30;;;27.00;1.00;;;;;;5093256;28;20679;-74
2022/06/28 10:51:18;;;;;;;0.50;0.50;;;27.20;1.00;;;;;;5092688;28;20166;-74
2022/06/28 10:53:57;;;;;;;0.40;0.40;;;27.50;1.00;;;;;;5093016;28;20170;-74
2022/06/28 10:56:23;;;;;;;0.40;0.40;;;27.40;1.00;;;;;;5093143;28;20177;-74
2022/06/28 10:59:12;;;;;;;0.40;0.40;;;27.30;1.00;;;;;;5092552;28;20292;-74
2022/06/28 11:01:42;;;;;;;0.40;0.40;;;26.90;1.00;;;;;;5093159;28;20194;-74
2022/06/28 11:04:11;;;;;;;0.40;0.40;;;26.10;1.00;;;;;;5093065;28;20181;-74
2022/06/28 11:06:40;;;;;;;0.40;0.40;;;25.80;1.00;;;;;;5092802;28;20592;-74
2022/06/28 11:09:30;;;;;;;0.20;0.20;;;25.60;1.00;;;;;;5092606;28;20192;-74
2022/06/28 11:12:12;;;;;;;0.40;0.40;;;26.00;1.00;;;;;;5092768;28;20205;-73
2022/06/28 11:15:35;;;;;;;0.43;0.43;;;26.20;1.00;;;;;;5092550;28;20723;-74
2022/06/28 11:18:01;;;;;;;0.37;0.37;;;26.20;1.00;;;;;;5092647;28;20174;-75
2022/06/28 11:20:28;;;;;;;0.40;0.40;;;26.00;1.00;;;;;;5092023;28;20227;-74
2022/06/28 11:22:53;;;;;;;0.30;0.30;;;25.80;1.00;;;;;;5092475;28;20201;-74
2022/06/28 11:25:20;;;;;;;0.40;0.40;;;25.90;1.00;;;;;;5092517;28;20173;-74
2022/06/28 11:27:55;;;;;;;0.30;0.30;;;25.70;1.00;;;;;;5092268;28;20170;-74
2022/06/28 11:30:23;;;;;;;0.40;0.40;;;25.60;1.00;;;;;;5091917;28;20672;-74
2022/06/28 11:32:50;;;;;;;0.40;0.40;;;25.60;1.00;;;;;;5092328;28;20205;-73
2022/06/28 11:35:18;;;;;;;0.47;0.47;;;25.50;1.00;;;;;;5092313;28;20546;-74
2022/06/28 11:37:51;;;;;;;0.30;0.30;;;25.50;1.00;;;;;;5092116;28;20540;-72
2022/06/28 11:40:19;;;;;;;0.30;0.30;;;25.30;1.00;;;;;;5091985;28;20240;-74
2022/06/28 11:42:46;;;;;;;0.40;0.40;;;25.10;1.00;;;;;;5091477;28;20194;-74
2022/06/28 11:45:13;;;;;;;0.33;0.33;;;25.10;1.00;;;;;;5074634;28;20503;-73
2022/06/28 11:47:43;;;;;;;0.40;0.40;;;25.10;1.00;;;;;;5077021;28;20659;-73
2022/06/28 11:50:18;;;;;;;0.40;0.40;;;25.10;1.00;;;;;;5082028;28;20278;-74
2022/06/28 11:52:50;;;;;;;0.40;0.40;;;25.00;1.00;;;;;;5087127;28;20197;-74
2022/06/28 11:55:17;;;;;;;0.30;0.30;;;24.90;1.00;;;;;;5085185;28;20258;-73
2022/06/28 11:57:44;;;;;;;0.30;0.30;;;24.80;1.00;;;;;;5092255;28;20178;-73
2022/06/28 12:00:13;;;;;;;0.50;0.50;;;24.90;1.00;;;;;;5083838;28;20213;-74
2022/06/28 12:02:49;;;;;;;0.30;0.30;;;25.00;1.00;;;;;;5081217;28;20259;-74
2022/06/28 12:05:36;;;;;;;0.30;0.30;;;25.20;1.00;;;;;;5074389;28;20582;-74
2022/06/28 12:08:03;;;;;;;0.40;0.40;;;25.30;1.00;;;;;;5071743;28;20166;-74
2022/06/28 12:10:32;;;;;;;0.40;0.40;;;25.30;1.00;;;;;;5071120;28;20174;-74
2022/06/28 12:12:59;;;;;;;0.43;0.43;;;25.40;1.00;;;;;;5074373;28;20381;-73
2022/06/28 12:15:30;;;;;;;0.43;0.43;;;25.40;1.00;;;;;;5073882;28;20575;-73
2022/06/28 12:18:03;;;;;;;0.30;0.30;;;25.30;1.00;;;;;;5082180;28;20173;-73
2022/06/28 12:20:30;;;;;;;0.50;0.50;;;25.30;1.00;;;;;;5084003;28;20165;-73
2022/06/28 12:23:01;;;;;;;0.40;0.40;;;25.20;1.00;;;;;;5091616;28;20193;-74
2022/06/28 12:25:27;;;;;;;0.30;0.30;;;25.00;1.00;;;;;;5078507;28;20182;-74
2022/06/28 12:27:53;;;;;;;0.30;0.30;;;24.70;1.00;;;;;;5078484;28;20181;-74
2022/06/28 12:30:19;;;;;;;0.40;0.40;;;24.80;1.00;;;;;;5073146;28;20580;-74
2022/06/28 12:32:45;;;;;;;0.40;0.40;;;24.90;1.00;;;;;;5071420;28;20197;-74
2022/06/28 12:35:12;;;;;;;0.30;0.30;;;25.00;1.00;;;;;;5071357;28;20182;-74
2022/06/28 12:37:37;;;;;;;0.40;0.40;;;24.80;1.00;;;;;;5071126;28;20175;-74
2022/06/28 12:40:04;;;;;;;0.40;0.40;;;24.60;1.00;;;;;;5072107;28;20228;-74
2022/06/28 12:42:31;;;;;;;0.37;0.37;;;24.60;1.00;;;;;;5075104;28;20206;-74
2022/06/28 12:45:00;;;;;;;0.50;0.50;;;24.60;1.00;;;;;;5075476;28;20174;-74
2022/06/28 12:47:36;;;;;;;0.40;0.40;;;24.80;1.00;;;;;;5075449;28;20175;-74
2022/06/28 12:50:05;;;;;;;0.40;0.40;;;25.10;1.00;;;;;;5074813;28;20200;-73
2022/06/28 12:52:31;;;;;;;0.37;0.37;;;25.10;1.00;;;;;;5075119;28;20303;-74
2022/06/28 12:54:58;;;;;;;0.40;0.40;;;25.00;1.00;;;;;;5074957;28;20181;-74
2022/06/28 12:57:24;;;;;;;0.30;0.30;;;24.80;1.00;;;;;;5075271;28;20183;-74
2022/06/28 12:59:50;;;;;;;0.43;0.43;;;24.70;1.00;;;;;;5074529;28;20221;-74
2022/06/28 13:02:15;;;;;;;0.30;0.30;;;24.50;1.00;;;;;;5074990;28;20555;-73
2022/06/28 13:04:41;;;;;;;0.40;0.40;;;24.60;1.00;;;;;;5074917;28;20179;-74
2022/06/28 13:07:06;;;;;;;0.50;0.50;;;24.80;1.00;;;;;;5074744;28;20166;-73
2022/06/28 13:09:32;;;;;;;0.47;0.47;;;24.90;1.00;;;;;;5074051;28;20185;-73